Time;durP1;ratioP1;P1;durP2;ratioP2;P2;SDS_P1;SDS_P2;PMS_P1;PMS_P2;Temp;Humidity;BMP_temperature;BMP_pressure;BME280_temperature;BME280_humidity;BME280_pressure;Samples;Min_cycle;Max_cycle;Signal;HPM_P1;HPM_P2
2021/12/15 00:00:38;;;;;;;131.20;46.83;;;9.60;99.90;;;;;;5110084;28;20039;-58
2021/12/15 00:03:06;;;;;;;141.00;47.15;;;9.60;99.90;;;;;;5106116;28;20095;-58
2021/12/15 00:05:33;;;;;;;150.95;47.65;;;9.60;99.90;;;;;;5103590;28;20121;-58
2021/12/15 00:08:01;;;;;;;136.02;45.92;;;9.60;99.90;;;;;;5110018;28;20042;-59
2021/12/15 00:10:28;;;;;;;133.35;46.85;;;9.60;99.90;;;;;;5104436;28;20127;-58
2021/12/15 00:12:55;;;;;;;141.80;45.67;;;9.60;99.90;;;;;;5108627;28;20046;-58
2021/12/15 00:15:23;;;;;;;139.45;46.63;;;9.60;99.90;;;;;;5084794;28;20115;-58
2021/12/15 00:17:49;;;;;;;139.93;45.92;;;9.60;99.90;;;;;;5109503;28;20035;-58
2021/12/15 00:20:17;;;;;;;146.32;46.05;;;9.60;99.90;;;;;;5105662;28;20063;-58
2021/12/15 00:22:43;;;;;;;153.43;47.20;;;9.60;99.90;;;;;;5111236;28;20032;-58
2021/12/15 00:25:10;;;;;;;149.23;46.83;;;9.60;99.90;;;;;;5106024;28;20044;-59
2021/12/15 00:27:37;;;;;;;147.82;48.40;;;9.60;99.90;;;;;;5109589;28;20031;-58
2021/12/15 00:30:06;;;;;;;157.52;45.88;;;9.60;99.90;;;;;;5109848;28;20046;-58
2021/12/15 00:32:32;;;;;;;147.82;46.53;;;9.60;99.90;;;;;;5111028;28;20039;-58
2021/12/15 00:34:58;;;;;;;163.95;46.83;;;9.60;99.90;;;;;;5105866;28;20042;-57
2021/12/15 00:37:23;;;;;;;145.13;44.88;;;9.60;99.90;;;;;;5110675;28;20047;-58
2021/12/15 00:39:49;;;;;;;145.80;47.75;;;9.60;99.90;;;;;;5108175;28;20390;-58
2021/12/15 00:42:16;;;;;;;154.90;46.90;;;9.60;99.90;;;;;;5111119;28;20112;-58
2021/12/15 00:44:42;;;;;;;153.45;47.33;;;9.60;99.90;;;;;;5107993;28;20035;-58
2021/12/15 00:47:09;;;;;;;148.70;45.63;;;9.60;99.90;;;;;;5111140;28;20035;-58
2021/12/15 00:49:36;;;;;;;170.43;48.38;;;9.60;99.90;;;;;;5098532;28;20046;-58
2021/12/15 00:52:04;;;;;;;156.18;46.00;;;9.60;99.90;;;;;;5110723;28;20052;-58
2021/12/15 00:54:30;;;;;;;162.18;45.13;;;9.60;99.90;;;;;;5106103;28;20126;-58
2021/12/15 00:56:57;;;;;;;169.05;46.88;;;9.60;99.90;;;;;;5111277;28;20527;-58
2021/12/15 00:59:23;;;;;;;172.55;46.72;;;9.60;99.90;;;;;;5107610;28;20035;-57
2021/12/15 01:01:51;;;;;;;168.73;46.13;;;9.60;99.90;;;;;;5109437;28;20544;-59
2021/12/15 01:04:19;;;;;;;148.85;43.53;;;9.60;99.90;;;;;;5103890;28;20506;-59
2021/12/15 01:06:49;;;;;;;174.85;47.22;;;9.60;99.90;;;;;;5106757;28;20039;-58
2021/12/15 01:09:24;;;;;;;159.48;44.60;;;9.60;99.90;;;;;;5104895;28;20035;-58
2021/12/15 01:19:47;;;;;;;153.07;42.70;;;9.60;99.90;;;;;;5108857;28;20060;-58
2021/12/15 01:20:20;;;;;;;168.18;45.10;;;9.60;99.90;;;;;;5106186;28;20054;-58
2021/12/15 01:22:48;;;;;;;165.52;44.90;;;9.60;99.90;;;;;;5113317;28;20387;-58
2021/12/15 01:25:33;;;;;;;163.90;45.60;;;9.60;99.90;;;;;;5108292;28;20032;-58
2021/12/15 01:27:59;;;;;;;162.48;43.40;;;9.60;99.90;;;;;;5114856;28;20035;-58
2021/12/15 01:30:28;;;;;;;143.68;39.88;;;9.60;99.90;;;;;;5111973;28;20046;-58
2021/12/15 01:32:56;;;;;;;135.45;40.00;;;9.60;99.90;;;;;;5096300;28;20554;-58
2021/12/15 01:35:22;;;;;;;143.98;43.30;;;9.60;99.90;;;;;;5108307;28;20042;-58
2021/12/15 01:37:49;;;;;;;156.20;43.00;;;9.60;99.90;;;;;;5114055;28;20036;-59
2021/12/15 01:40:25;;;;;;;146.38;42.08;;;9.60;99.90;;;;;;5075634;28;20132;-57
2021/12/15 01:42:51;;;;;;;121.18;37.42;;;9.60;99.90;;;;;;5114237;28;20035;-59
2021/12/15 01:48:10;;;;;;;130.27;38.95;;;9.60;99.90;;;;;;5113591;28;20042;-58
2021/12/15 01:50:36;;;;;;;142.55;41.10;;;9.60;99.90;;;;;;5107909;28;20073;-59
2021/12/15 01:53:05;;;;;;;138.50;40.50;;;9.60;99.90;;;;;;5114352;28;20069;-58
2021/12/15 01:55:31;;;;;;;137.95;40.45;;;9.60;99.90;;;;;;5109183;28;20036;-59
2021/12/15 01:57:56;;;;;;;123.78;40.15;;;9.60;99.90;;;;;;5113532;28;20042;-57
2021/12/15 02:00:29;;;;;;;141.15;41.13;;;9.60;99.90;;;;;;5109763;28;20044;-58
2021/12/15 02:02:57;;;;;;;146.97;40.93;;;9.60;99.90;;;;;;5110833;28;20050;-58
2021/12/15 02:05:25;;;;;;;149.85;41.85;;;9.70;99.90;;;;;;5089455;28;20073;-58
2021/12/15 02:07:52;;;;;;;152.70;42.95;;;9.60;99.90;;;;;;5114329;28;20069;-58
2021/12/15 02:10:20;;;;;;;159.07;43.28;;;9.60;99.90;;;;;;5095163;28;20144;-57
2021/12/15 02:12:46;;;;;;;144.57;41.97;;;9.60;99.90;;;;;;5113397;28;20042;-57
2021/12/15 02:15:20;;;;;;;153.60;44.22;;;9.60;99.90;;;;;;5111572;28;20055;-58
2021/12/15 02:17:46;;;;;;;150.02;43.85;;;9.60;99.90;;;;;;5111795;28;20118;-56
2021/12/15 02:20:14;;;;;;;150.15;44.10;;;9.60;99.90;;;;;;5107852;27;20134;-58
2021/12/15 02:22:41;;;;;;;143.25;43.85;;;9.60;99.90;;;;;;5110831;28;20043;-58
2021/12/15 02:25:10;;;;;;;151.15;44.60;;;9.60;99.90;;;;;;5110107;28;20382;-58
2021/12/15 02:27:37;;;;;;;148.85;45.28;;;9.60;99.90;;;;;;5094936;28;20036;-58
2021/12/15 02:38:32;;;;;;;155.40;47.28;;;9.60;99.90;;;;;;5113229;28;20044;-58
2021/12/15 02:41:06;;;;;;;155.18;45.22;;;9.60;99.90;;;;;;5109847;28;20131;-58
2021/12/15 02:43:32;;;;;;;147.63;45.30;;;9.60;99.90;;;;;;5110074;28;20035;-58
2021/12/15 02:45:58;;;;;;;147.63;45.33;;;9.60;99.90;;;;;;5111623;28;20032;-58
2021/12/15 02:48:24;;;;;;;156.35;47.78;;;9.60;99.90;;;;;;5083528;28;20050;-58
2021/12/15 02:50:49;;;;;;;155.02;49.13;;;9.60;99.90;;;;;;5106920;28;20395;-58
2021/12/15 02:53:16;;;;;;;159.73;48.30;;;9.60;99.90;;;;;;5112977;28;20063;-58
2021/12/15 02:55:42;;;;;;;162.75;50.05;;;9.60;99.90;;;;;;5106737;28;20040;-58
2021/12/15 02:58:07;;;;;;;148.20;47.33;;;9.60;99.90;;;;;;5112757;28;20090;-59
2021/12/15 03:01:21;;;;;;;167.23;50.97;;;9.60;99.90;;;;;;5111992;28;20031;-58
2021/12/15 03:06:04;;;;;;;171.80;50.38;;;9.60;99.90;;;;;;5104811;28;20068;-59
2021/12/15 03:09:17;;;;;;;149.35;48.65;;;9.60;99.90;;;;;;5112363;28;20478;-58
2021/12/15 03:16:56;;;;;;;162.10;51.20;;;9.60;99.90;;;;;;5112815;28;20069;-58
2021/12/15 03:19:23;;;;;;;161.20;50.08;;;9.50;99.90;;;;;;5101649;28;20037;-58
2021/12/15 03:21:48;;;;;;;152.77;50.85;;;9.60;99.90;;;;;;5111581;28;20065;-58
2021/12/15 03:24:19;;;;;;;151.20;49.38;;;9.60;99.90;;;;;;5109150;28;20031;-58
2021/12/15 03:27:02;;;;;;;153.90;50.05;;;9.50;99.90;;;;;;5112347;28;20039;-58
2021/12/15 03:35:16;;;;;;;;;;;9.70;99.90;;;;;;5102064;28;20096;-58
2021/12/15 03:37:52;;;;;;;139.85;48.97;;;9.50;99.90;;;;;;5110505;28;19923;-58
2021/12/15 03:40:32;;;;;;;159.60;51.88;;;9.50;99.90;;;;;;5103020;28;20039;-57
2021/12/15 03:43:01;;;;;;;162.98;54.55;;;9.50;99.90;;;;;;5111244;28;20466;-58
2021/12/15 03:45:39;;;;;;;150.60;52.50;;;9.50;99.90;;;;;;5107318;28;20044;-59
2021/12/15 03:48:08;;;;;;;159.48;53.22;;;9.50;99.90;;;;;;5110167;28;20133;-58
2021/12/15 03:50:37;;;;;;;160.27;54.80;;;9.50;99.90;;;;;;5106658;28;20126;-58
2021/12/15 03:53:04;;;;;;;142.43;50.85;;;9.50;99.90;;;;;;5111640;28;20039;-58
2021/12/15 03:55:33;;;;;;;151.85;54.75;;;9.50;99.90;;;;;;5106568;28;20039;-58
2021/12/15 03:58:00;;;;;;;147.90;52.92;;;9.50;99.90;;;;;;5111908;28;20363;-58
2021/12/15 04:00:30;;;;;;;158.55;55.05;;;9.50;99.90;;;;;;5110388;28;20044;-58
2021/12/15 04:02:56;;;;;;;149.52;53.50;;;9.50;99.90;;;;;;5109305;28;20039;-58
2021/12/15 04:05:23;;;;;;;152.15;54.85;;;9.50;99.90;;;;;;5108959;28;20041;-58
2021/12/15 04:07:50;;;;;;;157.15;55.47;;;9.50;99.90;;;;;;5111430;28;20055;-58
2021/12/15 04:10:20;;;;;;;156.40;55.55;;;9.50;99.90;;;;;;5108307;28;20043;-58
2021/12/15 04:12:46;;;;;;;144.70;54.63;;;9.50;99.90;;;;;;5111669;28;20031;-58
2021/12/15 04:15:29;;;;;;;131.07;50.75;;;9.50;99.90;;;;;;5106572;28;20055;-58
2021/12/15 04:18:02;;;;;;;166.25;55.83;;;9.70;99.90;;;;;;5109639;28;20051;-58
2021/12/15 04:20:31;;;;;;;151.60;54.60;;;9.50;99.90;;;;;;5065628;28;20071;-58
2021/12/15 04:23:00;;;;;;;152.90;56.17;;;9.50;99.90;;;;;;5110819;28;20032;-58
2021/12/15 04:25:29;;;;;;;158.43;57.20;;;9.50;99.90;;;;;;5107964;28;20120;-58
2021/12/15 04:28:02;;;;;;;157.63;56.05;;;9.50;99.90;;;;;;5092736;28;20031;-58
2021/12/15 04:30:32;;;;;;;154.93;56.38;;;9.60;99.90;;;;;;5108858;28;20043;-58
2021/12/15 04:33:01;;;;;;;148.35;52.15;;;9.50;99.90;;;;;;5111148;28;20048;-58
2021/12/15 04:35:27;;;;;;;137.32;51.53;;;9.50;99.90;;;;;;5106670;28;20360;-58
2021/12/15 04:37:53;;;;;;;141.68;54.65;;;9.50;99.90;;;;;;5091944;28;20085;-58
2021/12/15 04:40:22;;;;;;;140.52;52.92;;;9.50;99.90;;;;;;5106218;28;20739;-58
2021/12/15 04:42:49;;;;;;;148.27;54.92;;;9.50;99.90;;;;;;5111068;28;20536;-58
2021/12/15 04:45:18;;;;;;;148.15;55.20;;;9.50;99.90;;;;;;5109679;28;20123;-58
2021/12/15 04:47:44;;;;;;;149.10;56.38;;;9.50;99.90;;;;;;5110904;28;20039;-58
2021/12/15 04:50:11;;;;;;;153.70;56.90;;;9.50;99.90;;;;;;5104161;28;20082;-58
2021/12/15 04:52:38;;;;;;;146.98;56.33;;;9.50;99.90;;;;;;5111335;28;20043;-58
2021/12/15 04:55:07;;;;;;;158.48;57.75;;;9.50;99.90;;;;;;5105554;28;20071;-58
2021/12/15 04:57:33;;;;;;;144.85;58.08;;;9.50;99.90;;;;;;5105310;28;20031;-58
2021/12/15 04:59:59;;;;;;;131.55;53.60;;;9.50;99.90;;;;;;5109137;28;20745;-58
2021/12/15 05:02:25;;;;;;;146.80;55.65;;;9.50;99.90;;;;;;5092307;28;20442;-58
2021/12/15 05:04:51;;;;;;;145.00;56.10;;;9.40;99.90;;;;;;5094140;28;20043;-58
2021/12/15 05:07:18;;;;;;;145.25;57.13;;;9.50;99.90;;;;;;5110351;28;20413;-58
2021/12/15 05:09:44;;;;;;;146.23;55.88;;;9.50;99.90;;;;;;5106030;28;20046;-58
2021/12/15 05:12:11;;;;;;;149.68;58.20;;;9.50;99.90;;;;;;5106308;28;20176;-58
2021/12/15 05:14:37;;;;;;;137.77;55.83;;;9.50;99.90;;;;;;5090561;28;20055;-58
2021/12/15 05:17:03;;;;;;;143.52;55.72;;;9.40;99.90;;;;;;5101320;28;20398;-58
2021/12/15 05:19:30;;;;;;;133.90;54.88;;;9.40;99.90;;;;;;5105136;28;20075;-58
2021/12/15 05:21:57;;;;;;;140.90;56.90;;;9.40;99.90;;;;;;5106744;28;20081;-58
2021/12/15 05:24:30;;;;;;;143.90;55.50;;;9.40;99.90;;;;;;5109371;28;20043;-58
2021/12/15 05:27:09;;;;;;;136.35;55.85;;;9.40;99.90;;;;;;5085688;28;20040;-58
2021/12/15 05:29:36;;;;;;;132.35;52.20;;;9.40;99.90;;;;;;5107004;28;20116;-58
2021/12/15 05:32:03;;;;;;;142.57;54.28;;;9.40;99.90;;;;;;5110216;28;20071;-58
2021/12/15 05:34:30;;;;;;;144.85;55.97;;;9.40;99.90;;;;;;5105800;28;20820;-58
2021/12/15 05:36:56;;;;;;;129.98;53.25;;;9.40;99.90;;;;;;5109055;28;20079;-58
2021/12/15 05:39:23;;;;;;;136.27;55.15;;;9.40;99.90;;;;;;5109650;28;20067;-59
2021/12/15 05:41:50;;;;;;;142.43;56.20;;;9.40;99.90;;;;;;5107648;28;20067;-58
2021/12/15 05:44:17;;;;;;;135.70;54.50;;;9.40;99.90;;;;;;5110601;28;20139;-58
2021/12/15 05:46:43;;;;;;;141.70;56.28;;;9.50;99.90;;;;;;5090535;28;20379;-58
2021/12/15 05:49:08;;;;;;;135.95;54.95;;;9.40;99.90;;;;;;5101227;28;20059;-58
2021/12/15 05:51:37;;;;;;;147.98;55.60;;;9.40;99.90;;;;;;5100841;28;20047;-58
2021/12/15 05:54:04;;;;;;;146.35;56.75;;;9.40;99.90;;;;;;5110163;28;20047;-57
2021/12/15 05:56:30;;;;;;;137.82;52.83;;;9.40;99.90;;;;;;5108619;28;20067;-58
2021/12/15 05:58:56;;;;;;;149.60;55.67;;;9.40;99.90;;;;;;5110743;28;20070;-58
2021/12/15 06:01:21;;;;;;;141.90;52.80;;;9.50;99.90;;;;;;5107634;28;20498;-57
2021/12/15 06:03:47;;;;;;;145.52;55.28;;;9.40;99.90;;;;;;5108368;28;20081;-58
2021/12/15 06:06:13;;;;;;;151.43;55.13;;;9.40;99.90;;;;;;5108366;28;20044;-58
2021/12/15 06:08:39;;;;;;;139.95;51.42;;;9.40;99.90;;;;;;5107992;28;20549;-58
2021/12/15 06:11:05;;;;;;;145.57;55.13;;;9.40;99.90;;;;;;5109585;28;20098;-58
2021/12/15 06:13:31;;;;;;;147.65;53.78;;;9.40;99.90;;;;;;5112256;28;20039;-58
2021/12/15 06:15:58;;;;;;;142.48;52.85;;;9.40;99.90;;;;;;5113769;28;20543;-58
2021/12/15 06:18:24;;;;;;;147.43;52.20;;;9.40;99.90;;;;;;5106503;27;20104;-58
2021/12/15 06:20:53;;;;;;;146.82;54.53;;;9.40;99.90;;;;;;5091792;28;20073;-57
2021/12/15 06:23:20;;;;;;;148.80;54.70;;;9.40;99.90;;;;;;5111234;28;20032;-58
2021/12/15 06:25:53;;;;;;;148.77;53.17;;;9.40;99.90;;;;;;5111182;28;20027;-58
2021/12/15 06:28:20;;;;;;;140.95;52.63;;;9.40;99.90;;;;;;5111909;28;20040;-58
2021/12/15 06:30:46;;;;;;;144.00;53.60;;;9.40;99.90;;;;;;5095048;28;20482;-58
2021/12/15 06:33:14;;;;;;;143.75;51.45;;;9.40;99.90;;;;;;5073555;28;20048;-58
2021/12/15 06:35:41;;;;;;;143.73;53.20;;;9.40;99.90;;;;;;5104195;28;20047;-58
2021/12/15 06:38:07;;;;;;;128.98;47.60;;;9.40;99.90;;;;;;5111078;28;20475;-58
2021/12/15 06:40:34;;;;;;;142.85;52.22;;;9.40;99.90;;;;;;5105198;28;20039;-59
2021/12/15 06:43:00;;;;;;;143.32;51.67;;;9.40;99.90;;;;;;5113219;28;20023;-58
2021/12/15 06:45:34;;;;;;;132.40;50.25;;;9.40;99.90;;;;;;5110911;28;20042;-58
2021/12/15 06:58:57;;;;;;;129.50;50.28;;;9.40;99.90;;;;;;5112055;28;20479;-58
2021/12/15 07:01:23;;;;;;;135.98;47.92;;;9.40;99.90;;;;;;5113035;28;20058;-58
2021/12/15 07:03:50;;;;;;;135.25;49.83;;;9.40;99.90;;;;;;5104544;28;20425;-58
2021/12/15 07:06:16;;;;;;;140.65;50.40;;;9.40;99.90;;;;;;5106426;28;20150;-58
2021/12/15 07:08:42;;;;;;;131.35;49.65;;;9.40;99.90;;;;;;5111745;28;20122;-58
2021/12/15 07:11:08;;;;;;;129.73;47.83;;;9.40;99.90;;;;;;5110937;28;20157;-58
2021/12/15 07:13:35;;;;;;;132.70;49.13;;;9.40;99.90;;;;;;5112522;28;20050;-58
2021/12/15 07:16:04;;;;;;;132.50;50.47;;;9.40;99.90;;;;;;5109013;28;20544;-58
2021/12/15 07:18:45;;;;;;;131.27;48.30;;;9.40;99.90;;;;;;5103715;28;20111;-58
2021/12/15 07:21:18;;;;;;;129.75;47.65;;;9.40;99.90;;;;;;5108599;28;20035;-58
2021/12/15 07:23:45;;;;;;;140.00;49.38;;;9.40;99.90;;;;;;5091030;28;20039;-58
2021/12/15 07:26:11;;;;;;;121.93;47.72;;;9.30;99.90;;;;;;5107871;28;20070;-58
2021/12/15 07:28:37;;;;;;;136.15;48.33;;;9.30;99.90;;;;;;5110113;28;20055;-58
2021/12/15 07:31:04;;;;;;;132.38;48.45;;;9.30;99.90;;;;;;5103221;28;20028;-58
2021/12/15 07:33:30;;;;;;;130.32;48.50;;;9.40;99.90;;;;;;5106954;28;20036;-58
2021/12/15 07:35:55;;;;;;;138.73;47.53;;;9.30;99.90;;;;;;5085320;28;20048;-58
2021/12/15 07:38:21;;;;;;;126.40;47.90;;;9.30;99.90;;;;;;5054124;28;20130;-58
2021/12/15 07:40:48;;;;;;;139.73;48.33;;;9.30;99.90;;;;;;5085548;28;20412;-58
2021/12/15 07:43:23;;;;;;;130.25;47.58;;;9.40;99.90;;;;;;5103770;28;20427;-58
2021/12/15 07:45:59;;;;;;;131.98;47.58;;;9.30;99.90;;;;;;5111885;28;20039;-58
2021/12/15 07:48:27;;;;;;;137.15;48.42;;;9.30;99.90;;;;;;5111556;28;20056;-58
2021/12/15 07:50:56;;;;;;;136.68;47.20;;;9.30;99.90;;;;;;5112056;28;20054;-58
2021/12/15 07:53:23;;;;;;;131.85;46.40;;;9.30;99.90;;;;;;5094358;28;20482;-59
2021/12/15 07:55:49;;;;;;;135.77;46.97;;;9.30;99.90;;;;;;5111455;28;20092;-58
2021/12/15 07:58:18;;;;;;;139.20;46.47;;;9.40;99.90;;;;;;5108740;28;20039;-58
2021/12/15 08:00:45;;;;;;;134.02;47.00;;;9.40;99.90;;;;;;5111672;28;20076;-58
2021/12/15 08:03:12;;;;;;;140.13;49.20;;;9.30;99.90;;;;;;5112016;28;20056;-58
2021/12/15 08:05:39;;;;;;;133.15;46.60;;;9.40;99.90;;;;;;5106485;28;20044;-58
2021/12/15 08:08:05;;;;;;;131.85;48.58;;;9.40;99.90;;;;;;5111235;28;20036;-58
2021/12/15 08:10:33;;;;;;;141.25;48.20;;;9.40;99.90;;;;;;5111592;28;20156;-58
2021/12/15 08:12:59;;;;;;;130.93;46.67;;;9.40;99.90;;;;;;5110107;28;20076;-58
2021/12/15 08:15:24;;;;;;;138.75;48.40;;;9.40;99.90;;;;;;5108639;28;20523;-58
2021/12/15 08:17:53;;;;;;;135.32;47.15;;;9.40;99.90;;;;;;5107943;28;20048;-58
2021/12/15 08:20:24;;;;;;;132.68;47.72;;;9.40;99.90;;;;;;5108817;28;20043;-58
2021/12/15 08:22:49;;;;;;;131.68;47.25;;;9.40;99.90;;;;;;5111807;28;20122;-58
2021/12/15 08:25:17;;;;;;;135.52;46.33;;;9.40;99.90;;;;;;5083440;28;20149;-57
2021/12/15 08:27:44;;;;;;;131.95;47.67;;;9.40;99.90;;;;;;5102038;28;20502;-58
2021/12/15 08:30:19;;;;;;;139.85;47.72;;;9.40;99.90;;;;;;5083795;28;20467;-59
2021/12/15 08:32:47;;;;;;;139.35;49.10;;;9.50;99.90;;;;;;5066688;28;20126;-56
2021/12/15 08:35:14;;;;;;;135.18;46.42;;;9.50;99.90;;;;;;5100532;28;20028;-56
2021/12/15 08:37:40;;;;;;;134.40;48.20;;;9.50;99.90;;;;;;5100783;28;20062;-56
2021/12/15 08:40:06;;;;;;;132.10;46.55;;;9.50;99.90;;;;;;5084731;28;20077;-56
2021/12/15 08:42:32;;;;;;;128.75;47.15;;;9.50;99.90;;;;;;5100319;28;20542;-56
2021/12/15 08:44:58;;;;;;;141.02;47.75;;;9.50;99.90;;;;;;5100908;28;20135;-58
2021/12/15 08:47:24;;;;;;;136.00;46.65;;;9.60;99.90;;;;;;5100595;28;20127;-58
2021/12/15 08:49:49;;;;;;;133.68;47.08;;;9.50;99.90;;;;;;5101618;28;20432;-58
2021/12/15 08:52:15;;;;;;;132.18;46.38;;;9.60;99.90;;;;;;5082696;28;20178;-58
2021/12/15 08:54:41;;;;;;;124.97;45.13;;;9.50;99.90;;;;;;5102680;28;20024;-58
2021/12/15 08:57:07;;;;;;;123.03;44.08;;;9.60;99.90;;;;;;5102497;28;20115;-57
2021/12/15 08:59:34;;;;;;;127.50;44.40;;;9.60;99.90;;;;;;5102868;28;20063;-58
2021/12/15 09:02:00;;;;;;;124.60;44.08;;;9.50;99.90;;;;;;5101942;28;20412;-58
2021/12/15 09:04:26;;;;;;;128.70;45.80;;;9.60;99.90;;;;;;5102569;28;20536;-58
2021/12/15 09:06:52;;;;;;;132.50;45.30;;;9.60;99.90;;;;;;5097143;28;20059;-58
2021/12/15 09:09:20;;;;;;;126.15;44.47;;;9.60;99.90;;;;;;5100874;28;20077;-58
2021/12/15 09:11:48;;;;;;;123.57;44.70;;;9.60;99.90;;;;;;5093568;28;20047;-58
2021/12/15 09:14:14;;;;;;;115.85;44.22;;;9.60;99.90;;;;;;5061359;28;20120;-58
2021/12/15 09:16:44;;;;;;;127.82;44.10;;;9.60;99.90;;;;;;5083465;28;20044;-57
2021/12/15 09:19:09;;;;;;;123.05;44.67;;;9.70;99.90;;;;;;5075259;28;20035;-58
2021/12/15 09:21:37;;;;;;;116.55;43.35;;;9.70;99.90;;;;;;5064628;28;20582;-57
2021/12/15 09:24:06;;;;;;;128.93;45.92;;;9.70;99.90;;;;;;5064932;28;20042;-58
2021/12/15 09:26:33;;;;;;;121.75;43.63;;;9.70;99.90;;;;;;5067290;28;20911;-58
2021/12/15 09:28:59;;;;;;;126.22;45.38;;;9.70;99.90;;;;;;5065932;28;20479;-57
2021/12/15 09:31:25;;;;;;;122.15;43.65;;;9.70;99.90;;;;;;5047306;28;20046;-57
2021/12/15 09:33:53;;;;;;;122.63;44.95;;;9.70;99.90;;;;;;5066832;28;20095;-57
2021/12/15 09:36:21;;;;;;;117.38;42.80;;;9.70;99.90;;;;;;5063244;28;20680;-58
2021/12/15 09:38:50;;;;;;;114.53;41.85;;;9.80;99.90;;;;;;5046883;28;20050;-58
2021/12/15 09:41:18;;;;;;;123.72;43.38;;;9.80;99.90;;;;;;5066418;28;20122;-58
2021/12/15 09:43:45;;;;;;;119.20;42.95;;;9.80;99.90;;;;;;5066390;28;20148;-57
2021/12/15 09:46:26;;;;;;;113.18;43.42;;;9.80;99.90;;;;;;5067453;28;20080;-58
2021/12/15 10:19:46;;;;;;;80.53;35.33;;;10.00;99.90;;;;;;5070334;28;20341;-58
2021/12/15 10:22:32;;;;;;;91.10;36.75;;;10.00;99.90;;;;;;5066846;28;20422;-58
2021/12/15 10:25:03;;;;;;;86.43;35.47;;;10.10;99.90;;;;;;5070104;28;20079;-58
2021/12/15 10:27:35;;;;;;;83.50;35.00;;;10.10;99.90;;;;;;5069183;28;20147;-58
2021/12/15 10:30:33;;;;;;;83.28;35.13;;;10.20;99.90;;;;;;5058133;28;20081;-57
2021/12/15 10:33:03;;;;;;;84.72;35.53;;;10.20;99.90;;;;;;5057642;28;20056;-58
2021/12/15 10:35:36;;;;;;;75.43;32.88;;;10.20;99.90;;;;;;5067235;28;20055;-58
2021/12/15 10:38:30;;;;;;;85.25;34.38;;;10.30;99.90;;;;;;5080173;28;20541;-58
2021/12/15 10:41:01;;;;;;;80.32;34.05;;;10.30;99.90;;;;;;5098975;28;20047;-57
2021/12/15 10:43:33;;;;;;;74.60;33.35;;;10.40;99.90;;;;;;5103482;28;20036;-57
2021/12/15 10:46:03;;;;;;;78.43;34.42;;;10.40;99.90;;;;;;5103449;28;20513;-57
2021/12/15 10:48:37;;;;;;;71.75;32.40;;;10.40;99.90;;;;;;5108536;28;20039;-58
2021/12/15 10:51:16;;;;;;;;;;;10.40;99.90;;;;;;5100442;28;20050;-58
2021/12/15 10:53:42;;;;;;;74.43;32.40;;;10.40;99.90;;;;;;5110309;28;19923;-58
2021/12/15 10:56:14;;;;;;;67.47;31.85;;;10.40;99.90;;;;;;5099075;28;20119;-58
2021/12/15 10:58:49;;;;;;;75.20;33.38;;;10.40;99.90;;;;;;5111941;28;20085;-57
2021/12/15 11:01:36;;;;;;;82.70;34.83;;;10.40;99.90;;;;;;5106770;28;21640;-58
2021/12/15 11:04:12;;;;;;;78.43;33.17;;;10.40;99.90;;;;;;5084815;28;20265;-57
2021/12/15 11:06:38;;;;;;;71.75;31.40;;;10.40;99.90;;;;;;5111864;28;20036;-59
2021/12/15 11:09:18;;;;;;;70.57;32.90;;;10.40;99.90;;;;;;5110354;28;20035;-58
2021/12/15 11:12:05;;;;;;;71.32;31.30;;;10.50;99.90;;;;;;5102713;28;20078;-58
2021/12/15 11:14:40;;;;;;;57.70;28.27;;;10.30;99.90;;;;;;5112205;28;20048;-57
2021/12/15 11:17:12;;;;;;;63.05;28.88;;;10.30;99.90;;;;;;5109509;28;20073;-58
2021/12/15 11:19:49;;;;;;;61.65;27.75;;;10.40;99.90;;;;;;5112030;28;20039;-57
2021/12/15 11:23:00;;;;;;;61.10;29.08;;;10.40;99.90;;;;;;5110945;28;20023;-58
2021/12/15 11:25:51;;;;;;;60.22;28.73;;;10.40;99.90;;;;;;5008982;28;20033;-57
2021/12/15 11:28:25;;;;;;;55.80;27.17;;;10.50;99.90;;;;;;5112725;28;20036;-57
2021/12/15 11:31:09;;;;;;;54.33;26.40;;;10.50;99.90;;;;;;5109556;28;20043;-57
2021/12/15 11:33:48;;;;;;;50.60;25.67;;;10.60;99.90;;;;;;5110739;28;20397;-56
2021/12/15 11:36:33;;;;;;;54.17;25.17;;;10.60;99.90;;;;;;5110919;28;20578;-58
2021/12/15 11:39:05;;;;;;;52.58;25.10;;;10.60;99.90;;;;;;5105455;28;20086;-58
2021/12/15 11:41:39;;;;;;;48.80;23.98;;;10.60;99.90;;;;;;5100082;28;20047;-57
2021/12/15 11:44:09;;;;;;;50.15;24.85;;;10.80;99.90;;;;;;5105843;28;20031;-57
2021/12/15 11:46:39;;;;;;;46.63;23.83;;;10.60;99.90;;;;;;5109440;28;20047;-57
2021/12/15 11:49:14;;;;;;;43.70;23.33;;;10.70;99.90;;;;;;5112006;28;20474;-57
2021/12/15 11:51:44;;;;;;;49.75;23.13;;;10.60;99.90;;;;;;5110910;28;20047;-58
2021/12/15 11:54:21;;;;;;;43.63;22.52;;;10.70;99.90;;;;;;5092611;28;20039;-57
2021/12/15 11:57:05;;;;;;;48.85;22.88;;;10.60;99.90;;;;;;5097543;28;20472;-57
2021/12/15 11:59:34;;;;;;;48.13;20.40;;;10.60;99.90;;;;;;5107625;28;20047;-52
2021/12/15 12:02:02;;;;;;;48.70;21.95;;;10.60;99.90;;;;;;5074650;28;20071;-55
2021/12/15 12:04:46;;;;;;;42.17;20.70;;;10.60;99.90;;;;;;5089673;28;20123;-58
2021/12/15 12:07:26;;;;;;;47.83;21.35;;;10.60;99.90;;;;;;5107764;28;20043;-57
2021/12/15 12:09:56;;;;;;;45.83;21.10;;;10.60;99.90;;;;;;5107040;28;20544;-58
2021/12/15 12:12:28;;;;;;;43.67;19.60;;;10.60;99.90;;;;;;5098778;28;20047;-58
2021/12/15 12:14:54;;;;;;;42.75;21.10;;;10.60;99.90;;;;;;5102312;28;20051;-57
2021/12/15 12:17:30;;;;;;;39.10;20.45;;;10.60;99.90;;;;;;5078100;28;20122;-57
2021/12/15 12:19:59;;;;;;;43.67;19.45;;;10.60;99.90;;;;;;5076849;28;20046;-57
2021/12/15 12:22:29;;;;;;;41.15;20.30;;;10.60;99.90;;;;;;5076580;28;20036;-56
2021/12/15 12:24:59;;;;;;;44.10;21.48;;;10.60;99.90;;;;;;5072660;28;20085;-57
2021/12/15 12:27:27;;;;;;;41.90;21.58;;;10.60;99.90;;;;;;5070469;28;20040;-57
2021/12/15 12:29:55;;;;;;;43.15;20.95;;;10.60;99.90;;;;;;5074035;28;20043;-57
2021/12/15 12:32:21;;;;;;;41.33;20.48;;;10.60;99.90;;;;;;5073242;28;20040;-56
2021/12/15 12:34:50;;;;;;;42.08;20.45;;;10.60;99.90;;;;;;5073227;28;20395;-57
2021/12/15 12:37:17;;;;;;;43.63;20.55;;;10.50;99.90;;;;;;5077430;28;20471;-56
2021/12/15 12:39:45;;;;;;;38.08;19.63;;;10.50;99.90;;;;;;5104896;28;20161;-57
2021/12/15 12:42:28;;;;;;;39.88;19.33;;;10.50;99.90;;;;;;5107441;28;20040;-55
2021/12/15 12:45:34;;;;;;;36.60;18.42;;;10.60;99.90;;;;;;5108427;28;20031;-56
2021/12/15 12:59:30;;;;;;;26.23;13.25;;;10.60;99.90;;;;;;5105907;28;20051;-57
2021/12/15 13:01:57;;;;;;;24.33;12.35;;;10.60;99.90;;;;;;5108046;28;20066;-56
2021/12/15 13:04:39;;;;;;;26.02;13.00;;;10.60;99.90;;;;;;5110915;28;20463;-54
2021/12/15 13:07:05;;;;;;;26.67;12.80;;;10.60;99.90;;;;;;5089451;28;20044;-56
2021/12/15 13:09:44;;;;;;;25.77;13.30;;;10.60;99.90;;;;;;5110788;28;20035;-56
2021/12/15 13:12:22;;;;;;;27.27;12.68;;;10.60;99.90;;;;;;5082443;28;20044;-57
2021/12/15 13:14:48;;;;;;;25.52;12.60;;;10.90;99.90;;;;;;5107714;28;20175;-56
2021/12/15 13:17:21;;;;;;;25.45;12.70;;;10.60;99.90;;;;;;5107025;28;20608;-56
2021/12/15 13:19:47;;;;;;;24.35;12.32;;;10.50;99.90;;;;;;5113508;28;20051;-57
2021/12/15 13:22:25;;;;;;;26.83;12.07;;;10.50;99.90;;;;;;5111047;28;20044;-56
2021/12/15 13:30:51;;;;;;;23.33;11.43;;;10.50;99.90;;;;;;5111738;28;20039;-56
2021/12/15 13:33:33;;;;;;;27.52;11.43;;;10.50;99.90;;;;;;5114653;28;20044;-56
2021/12/15 13:36:07;;;;;;;25.75;10.88;;;10.50;99.90;;;;;;5111923;28;20138;-57
2021/12/15 13:38:35;;;;;;;21.83;9.10;;;10.50;99.90;;;;;;5114649;28;20386;-57
2021/12/15 13:41:20;;;;;;;22.33;9.07;;;10.50;99.90;;;;;;5112231;28;20039;-57
2021/12/15 13:43:50;;;;;;;19.10;8.90;;;10.40;99.90;;;;;;5112736;28;20093;-57
2021/12/15 13:46:33;;;;;;;16.02;6.60;;;10.40;99.90;;;;;;5113653;28;20063;-57
2021/12/15 13:49:01;;;;;;;16.23;5.00;;;10.40;99.90;;;;;;5107252;28;20491;-57
2021/12/15 13:52:05;;;;;;;10.85;4.82;;;10.40;99.90;;;;;;5108201;28;20046;-56
2021/12/15 13:54:37;;;;;;;11.07;3.33;;;10.40;99.90;;;;;;5097052;28;20603;-57
2021/12/15 13:57:11;;;;;;;10.30;2.70;;;10.30;99.90;;;;;;5104424;28;20104;-58
2021/12/15 13:59:40;;;;;;;5.28;2.00;;;10.30;99.90;;;;;;5111090;28;20047;-56
2021/12/15 14:02:31;;;;;;;8.38;2.47;;;10.30;99.90;;;;;;5114184;28;20078;-56
2021/12/15 14:05:15;;;;;;;7.78;1.95;;;10.30;99.90;;;;;;5098175;28;20046;-57
2021/12/15 14:07:48;;;;;;;8.80;1.83;;;10.20;99.90;;;;;;5114215;28;20411;-57
2021/12/15 14:10:13;;;;;;;6.30;2.07;;;10.20;99.90;;;;;;5108757;28;20082;-55
2021/12/15 14:12:45;;;;;;;8.85;2.30;;;10.20;99.90;;;;;;5112142;28;20067;-57